D/T METAR WX W/DIR W/SPE G/SPE TEMP DEWP
18/02/19 09:38 EGUW 180938Z 21007KT 9999 BKN007 BKN070 08/07 Q1015 GRN TEMPO FEW012 BLU SSW (210°) 8.1mph 8°C 7°C
18/02/19 08:50 EGUW 180850Z 19006KT 9999 FEW009 BKN200 07/07 Q1015 BLU TEMPO BKN008 GRN S (190°) 6.9mph 7°C 7°C
18/02/19 07:50 EGUW 180750Z 18006KT 8000 BR FEW009 BKN200 06/06 Q1015 BLU TEMPO BKN008 GRN BR S (180°) 6.9mph 6°C 6°C
18/02/19 06:50 EGUW 180650Z 19007KT 7000 BR FEW100 BKN200 06/06 Q1014 WHT BR S (190°) 8.1mph 6°C 6°C
18/02/19 05:50 EGUW 180550Z AUTO 19006KT 9000 BR NCD 07/06 Q1015 BR S (190°) 6.9mph 7°C 6°C
18/02/19 04:50 EGUW 180450Z AUTO 20006KT 9999 FEW190/// 07/07 Q1015 SSW (200°) 6.9mph 7°C 7°C
18/02/19 03:50 EGUW 180350Z AUTO 21006KT 9999 FEW250/// 08/07 Q1015 SSW (210°) 6.9mph 8°C 7°C
18/02/19 02:50 EGUW 180250Z AUTO 20007KT 9999 SCT046/// SCT070/// 08/07 Q1015 SSW (200°) 8.1mph 8°C 7°C
18/02/19 01:50 EGUW 180150Z AUTO 18007KT 9999 SCT034/// BKN045/// 09/08 Q1016 RERA S (180°) 8.1mph 9°C 8°C
18/02/19 00:50 EGUW 180050Z AUTO 17007KT 9999 FEW025/// BKN033/// 09/08 Q1016 RERA S (170°) 8.1mph 9°C 8°C
17/02/19 23:50 EGUW 172350Z AUTO 17007KT 9999 BKN025/// BKN032/// 09/08 Q1015 RERA S (170°) 8.1mph 9°C 8°C
17/02/19 22:50 EGUW 172250Z AUTO 18007KT 9000 -RA BKN032/// BKN050/// 09/08 Q1016 -RA S (180°) 8.1mph 9°C 8°C
17/02/19 21:50 EGUW 172150Z AUTO 18008KT 9999 BKN050/// 09/07 Q1016 S (180°) 9.2mph 9°C 7°C
17/02/19 20:50 EGUW 172050Z AUTO 19008KT 9999 NCD 08/07 Q1015 S (190°) 9.2mph 8°C 7°C
17/02/19 19:50 EGUW 171950Z AUTO 20007KT 9999 NCD 09/07 Q1015 SSW (200°) 8.1mph 9°C 7°C
17/02/19 18:50 EGUW 171850Z AUTO 20008KT 9999 BKN020/// 10/07 Q1015 SSW (200°) 9.2mph 10°C 7°C
17/02/19 17:50 EGUW 171750Z AUTO 17007KT 9999 NCD 10/06 Q1014 S (170°) 8.1mph 10°C 6°C
17/02/19 16:50 EGUW 171650Z AUTO 18007KT 9999 NCD 12/06 Q1014 S (180°) 8.1mph 12°C 6°C
17/02/19 15:50 EGUW 171550Z AUTO 20007KT 9999 NCD 13/06 Q1013 SSW (200°) 8.1mph 13°C 6°C
17/02/19 14:50 EGUW 171450Z AUTO 21011KT 9999 NCD 13/06 Q1013 SSW (210°) 12.7mph 13°C 6°C
17/02/19 13:50 EGUW 171350Z AUTO 21012KT 9999 NCD 13/06 Q1014 SSW (210°) 13.8mph 13°C 6°C
17/02/19 12:50 EGUW 171250Z AUTO 18009KT 9999 NCD 12/05 Q1014 S (180°) 10.4mph 12°C 5°C
17/02/19 11:50 EGUW 171150Z AUTO 18010KT 9999 NCD 10/04 Q1014 S (180°) 11.5mph 10°C 4°C
17/02/19 10:50 EGUW 171050Z AUTO 18010KT 9999 NCD 10/05 Q1015 S (180°) 11.5mph 10°C 5°C
17/02/19 09:50 EGUW 170950Z AUTO 18009KT 9999 NCD 09/06 Q1015 S (180°) 10.4mph 9°C 6°C
17/02/19 08:50 EGUW 170850Z AUTO 16008KT 8000 HZ NCD 07/06 Q1016 HZ SSE (160°) 9.2mph 7°C 6°C
17/02/19 07:50 EGUW 170750Z AUTO 16009KT 6000 BR NCD 06/05 Q1016 BR SSE (160°) 10.4mph 6°C 5°C
17/02/19 06:50 EGUW 170650Z AUTO 17008KT 5000 BR NCD 05/05 Q1016 BR S (170°) 9.2mph 5°C 5°C
17/02/19 05:50 EGUW 170550Z AUTO 16009KT 5000 BR NCD 05/05 Q1016 BR SSE (160°) 10.4mph 5°C 5°C
17/02/19 04:50 EGUW 170450Z AUTO 18008KT 3200 BR NCD 05/05 Q1017 BR S (180°) 9.2mph 5°C 5°C
17/02/19 03:50 EGUW 170350Z AUTO 17009KT 2000 BR FEW001/// 05/05 Q1017 RERA BR S (170°) 10.4mph 5°C 5°C
17/02/19 02:50 EGUW 170250Z AUTO 16008KT 0150 -RA VV/// 06/06 Q1018 -RA SSE (160°) 9.2mph 6°C 6°C
17/02/19 01:50 EGUW 170150Z AUTO 18007KT 0100 FG VV/// 06/06 Q1019 FG S (180°) 8.1mph 6°C 6°C
17/02/19 00:50 EGUW 170050Z AUTO 20004KT 0150 FG VV/// 06/06 Q1020 FG SSW (200°) 4.6mph 6°C 6°C
16/02/19 23:50 EGUW 162350Z AUTO 18006KT 0150 FG VV/// 07/07 Q1020 FG S (180°) 6.9mph 7°C 7°C
16/02/19 22:50 EGUW 162250Z AUTO 18007KT 0550 FG BKN001/// 07/07 Q1021 FG S (180°) 8.1mph 7°C 7°C
16/02/19 21:50 EGUW 162150Z AUTO 17005KT 6000 BR BKN016/// 09/08 Q1021 BR S (170°) 5.8mph 9°C 8°C
16/02/19 20:50 EGUW 162050Z AUTO 18008KT 7000 BR OVC017/// 10/09 Q1021 BR S (180°) 9.2mph 10°C 9°C
16/02/19 19:50 EGUW 161950Z AUTO 19008KT 6000 BR OVC017/// 10/09 Q1022 BR S (190°) 9.2mph 10°C 9°C
16/02/19 18:50 EGUW 161850Z AUTO 18008KT 7000 BR OVC016/// 10/09 Q1022 BR S (180°) 9.2mph 10°C 9°C
16/02/19 17:50 EGUW 161750Z AUTO 19009KT 7000 HZ OVC016/// 10/09 Q1021 HZ S (190°) 10.4mph 10°C 9°C
16/02/19 16:50 EGUW 161650Z AUTO 20008KT 6000 BR OVC016/// 10/09 Q1021 BR SSW (200°) 9.2mph 10°C 9°C
16/02/19 15:50 EGUW 161550Z AUTO 18007KT 6000 HZ OVC013/// 10/09 Q1021 HZ S (180°) 8.1mph 10°C 9°C
16/02/19 14:50 EGUW 161450Z AUTO 19008KT 7000 HZ OVC018/// 10/09 Q1022 HZ S (190°) 9.2mph 10°C 9°C
16/02/19 13:50 EGUW 161350Z AUTO 19007KT 7000 HZ FEW006/// BKN017/// 10/09 Q1022 HZ S (190°) 8.1mph 10°C 9°C
16/02/19 12:50 EGUW 161250Z AUTO 21009KT 7000 HZ BKN017/// 10/09 Q1022 HZ SSW (210°) 10.4mph 10°C 9°C
16/02/19 11:50 EGUW 161150Z AUTO 20009KT 7000 HZ OVC018/// 09/08 Q1023 HZ SSW (200°) 10.4mph 9°C 8°C
16/02/19 10:50 EGUW 161050Z AUTO 20008KT 7000 HZ OVC018/// 09/07 Q1023 HZ SSW (200°) 9.2mph 9°C 7°C
16/02/19 09:50 EGUW 160950Z AUTO 19005KT 6000 HZ OVC018/// 08/06 Q1023 HZ S (190°) 5.8mph 8°C 6°C
16/02/19 08:50 EGUW 160850Z AUTO 18007KT 5000 HZ OVC019/// 06/05 Q1022 HZ S (180°) 8.1mph 6°C 5°C
16/02/19 07:50 EGUW 160750Z AUTO 19007KT 5000 HZ BKN021/// 05/04 Q1022 HZ S (190°) 8.1mph 5°C 4°C
16/02/19 06:50 EGUW 160650Z AUTO 18005KT 6000 HZ FEW024/// 05/04 Q1022 HZ S (180°) 5.8mph 5°C 4°C
16/02/19 05:50 EGUW 160550Z AUTO 18004KT 7000 HZ NCD 05/04 Q1022 HZ S (180°) 4.6mph 5°C 4°C
16/02/19 04:50 EGUW 160450Z AUTO 23004KT 6000 HZ NCD 03/02 Q1021 HZ SW (230°) 4.6mph 3°C 2°C
16/02/19 03:50 EGUW 160350Z AUTO 21008KT 9999 NCD 05/03 Q1021 SSW (210°) 9.2mph 5°C 3°C
16/02/19 02:50 EGUW 160250Z AUTO 20010KT 9999 NCD 05/02 Q1021 SSW (200°) 11.5mph 5°C 2°C
16/02/19 01:50 EGUW 160150Z AUTO 21006KT 9999 NCD 04/02 Q1022 SSW (210°) 6.9mph 4°C 2°C
16/02/19 00:50 EGUW 160050Z AUTO 19009KT 9999 NCD 06/02 Q1022 S (190°) 10.4mph 6°C 2°C
15/02/19 23:50 EGUW 152350Z AUTO 20009KT 9999 NCD 05/02 Q1023 SSW (200°) 10.4mph 5°C 2°C
15/02/19 22:50 EGUW 152250Z AUTO 20010KT 9999 NCD 06/03 Q1023 SSW (200°) 11.5mph 6°C 3°C
15/02/19 21:50 EGUW 152150Z AUTO 19010KT 9999 NCD 06/03 Q1023 S (190°) 11.5mph 6°C 3°C
15/02/19 20:50 EGUW 152050Z AUTO 19010KT 9999 NCD 06/04 Q1023 S (190°) 11.5mph 6°C 4°C
15/02/19 19:50 EGUW 151950Z AUTO 19009KT 9999 NCD 07/04 Q1024 S (190°) 10.4mph 7°C 4°C
15/02/19 18:50 EGUW 151850Z AUTO 17008KT 9999 NCD 07/05 Q1024 S (170°) 9.2mph 7°C 5°C
15/02/19 17:50 EGUW 151750Z AUTO 16006KT 9000 HZ NCD 08/05 Q1024 HZ SSE (160°) 6.9mph 8°C 5°C
15/02/19 16:50 EGUW 151650Z AUTO 16005KT 9999 NCD 10/05 Q1024 SSE (160°) 5.8mph 10°C 5°C
15/02/19 15:50 EGUW 151550Z 18006KT CAVOK 12/05 Q1025 BLACKBLU NOSIG S (180°) 6.9mph 12°C 5°C
15/02/19 14:50 EGUW 151450Z 19008KT CAVOK 13/04 Q1025 BLACKBLU NOSIG S (190°) 9.2mph 13°C 4°C
15/02/19 13:50 EGUW 151350Z 19006KT CAVOK 13/04 Q1026 BLACKBLU NOSIG S (190°) 6.9mph 13°C 4°C
15/02/19 12:50 EGUW 151250Z 20008KT CAVOK 12/04 Q1026 BLACKBLU NOSIG SSW (200°) 9.2mph 12°C 4°C
15/02/19 11:50 EGUW 151150Z 21006KT CAVOK 11/06 Q1027 BLU NOSIG SSW (210°) 6.9mph 11°C 6°C
15/02/19 10:50 EGUW 151050Z 19006KT CAVOK 09/06 Q1028 BLACKBLU NOSIG S (190°) 6.9mph 9°C 6°C
15/02/19 09:50 EGUW 150950Z 18007KT CAVOK 07/04 Q1028 BLU NOSIG S (180°) 8.1mph 7°C 4°C
15/02/19 08:50 EGUW 150850Z 17007KT 8000 HZ SKC 05/03 Q1028 BLU TEMPO 5000 BR WHT HZ S (170°) 8.1mph 5°C 3°C
15/02/19 08:04 EGUW 150804Z 17009KT 7000 BR SKC 04/03 Q1028 BLACKWHT TEMPO 0500 FG RED BR S (170°) 10.4mph 4°C 3°C
15/02/19 06:50 EGUW 150650Z 18007KT 4000 BR SKC 04/03 Q1028 GRN TEMPO 0200 FG RED BR S (180°) 8.1mph 4°C 3°C
15/02/19 05:50 EGUW 150550Z 17008KT 4000 BR SKC 04/03 Q1028 GRN BR S (170°) 9.2mph 4°C 3°C
15/02/19 04:50 EGUW 150450Z 16008KT 5000 BR SKC 04/03 Q1028 WHT BR SSE (160°) 9.2mph 4°C 3°C
15/02/19 03:50 EGUW 150350Z 17008KT 5000 BR SKC 04/03 Q1028 WHT BR S (170°) 9.2mph 4°C 3°C
15/02/19 02:50 EGUW 150250Z 17007KT 5000 MIFG BR SKC 04/03 Q1029 WHT MIFG BR S (170°) 8.1mph 4°C 3°C
15/02/19 01:50 EGUW 150150Z 16007KT 4000 VCFG MIFG SKC 04/03 Q1029 GRN VCFG MIFG SSE (160°) 8.1mph 4°C 3°C
15/02/19 00:50 EGUW 150050Z 18006KT 9999 4000E VCFG SKC 05/03 Q1030 GRN VCFG S (180°) 6.9mph 5°C 3°C
14/02/19 23:50 EGUW 142350Z 16007KT 5000 BR SKC 05/04 Q1030 WHT BECMG 4000 GRN BR SSE (160°) 8.1mph 5°C 4°C
14/02/19 22:50 EGUW 142250Z 17007KT 5000 BR SKC 05/04 Q1030 WHT BECMG 4000 GRN BR S (170°) 8.1mph 5°C 4°C
14/02/19 21:50 EGUW 142150Z 15006KT 6000 BR SKC 04/03 Q1030 WHT BECMG 4000 GRN BR SSE (150°) 6.9mph 4°C 3°C
14/02/19 20:50 EGUW 142050Z 15007KT 6000 BR SKC 04/03 Q1030 WHT NOSIG BR SSE (150°) 8.1mph 4°C 3°C
14/02/19 19:50 EGUW 141950Z 15007KT 8000 BR SKC 04/03 Q1030 BLU BECMG 5000 BR WHT BR SSE (150°) 8.1mph 4°C 3°C
14/02/19 18:50 EGUW 141850Z 13006KT CAVOK 05/03 Q1031 BLU BECMG 7000 BR WHT SE (130°) 6.9mph 5°C 3°C
14/02/19 17:50 EGUW 141750Z 15006KT CAVOK 06/02 Q1031 BLU NOSIG SSE (150°) 6.9mph 6°C 2°C
14/02/19 16:50 EGUW 141650Z 14008KT CAVOK 08/02 Q1031 BLU NOSIG SE (140°) 9.2mph 8°C 2°C
14/02/19 15:50 EGUW 141550Z 16007KT CAVOK 10/03 Q1031 BLU NOSIG SSE (160°) 8.1mph 10°C 3°C
14/02/19 14:50 EGUW 141450Z 16008KT CAVOK 11/04 Q1031 BLU NOSIG SSE (160°) 9.2mph 11°C 4°C
14/02/19 13:50 EGUW 141350Z 17006KT CAVOK 11/04 Q1031 BLU NOSIG S (170°) 6.9mph 11°C 4°C
14/02/19 12:50 EGUW 141250Z 16007KT CAVOK 11/05 Q1032 BLU NOSIG SSE (160°) 8.1mph 11°C 5°C
14/02/19 11:50 EGUW 141150Z 16008KT 9999 FEW001 09/05 Q1033 BLU NOSIG SSE (160°) 9.2mph 9°C 5°C
14/02/19 10:50 EGUW 141050Z 17006KT CAVOK 08/05 Q1033 BLU NOSIG S (170°) 6.9mph 8°C 5°C
14/02/19 10:33 EGUW 141033Z 18007KT 7000 HZ FEW003 07/05 Q1033 WHT BECMG 8000 BLU HZ S (180°) 8.1mph 7°C 5°C
14/02/19 09:50 EGUW 140950Z 21006KT 3800 VCFG FEW200 06/06 Q1033 GRN BECMG 8000 HZ BLU VCFG SSW (210°) 6.9mph 6°C 6°C
14/02/19 08:50 EGUW 140850Z 14006KT 0200 FG SKC 03/03 Q1033 RED BECMG 4000 BR GRN FG SE (140°) 6.9mph 3°C 3°C
14/02/19 07:50 EGUW 140750Z 19007KT 3000 BR FEW250 03/03 Q1033 YLO1 BECMG 4000 BR GRN BR S (190°) 8.1mph 3°C 3°C
14/02/19 06:50 EGUW 140650Z 17007KT 2000 BR FEW250 02/02 Q1032 YLO2 BR S (170°) 8.1mph 2°C 2°C
14/02/19 05:50 EGUW 140550Z 20005KT 5000 BR FEW250 02/02 Q1032 WHT BR SSW (200°) 5.8mph 2°C 2°C
14/02/19 04:50 EGUW 140450Z 21005KT 5000 BR SCT250 03/02 Q1032 WHT BR SSW (210°) 5.8mph 3°C 2°C
14/02/19 03:50 EGUW 140350Z 21007KT 8000 HZ SCT250 03/02 Q1032 BLU HZ SSW (210°) 8.1mph 3°C 2°C
14/02/19 02:50 EGUW 140250Z 20009KT CAVOK 04/02 Q1032 BLU SSW (200°) 10.4mph 4°C 2°C
14/02/19 01:50 EGUW 140150Z 22006KT CAVOK 03/03 Q1032 BLU SW (220°) 6.9mph 3°C 3°C
14/02/19 00:50 EGUW 140050Z 21008KT CAVOK 04/03 Q1032 BLU SSW (210°) 9.2mph 4°C 3°C
13/02/19 23:50 EGUW 132350Z 20009KT CAVOK 04/03 Q1032 BLU SSW (200°) 10.4mph 4°C 3°C
13/02/19 22:50 EGUW 132250Z 22007KT CAVOK 04/03 Q1032 BLU SW (220°) 8.1mph 4°C 3°C
13/02/19 21:50 EGUW 132150Z 21008KT CAVOK 05/04 Q1032 BLU NOSIG SSW (210°) 9.2mph 5°C 4°C
13/02/19 20:50 EGUW 132050Z 22009KT CAVOK 06/04 Q1032 BLU NOSIG SW (220°) 10.4mph 6°C 4°C
13/02/19 19:50 EGUW 131950Z 21009KT CAVOK 06/04 Q1031 BLU NOSIG SSW (210°) 10.4mph 6°C 4°C
13/02/19 18:50 EGUW 131850Z 19007KT CAVOK 07/05 Q1031 BLU NOSIG S (190°) 8.1mph 7°C 5°C
13/02/19 17:50 EGUW 131750Z 18007KT CAVOK 08/05 Q1031 BLU NOSIG S (180°) 8.1mph 8°C 5°C
13/02/19 16:50 EGUW 131650Z 19007KT CAVOK 09/05 Q1031 BLU NOSIG S (190°) 8.1mph 9°C 5°C
13/02/19 15:50 EGUW 131550Z 22008KT CAVOK 09/06 Q1032 BLU NOSIG SW (220°) 9.2mph 9°C 6°C
13/02/19 14:50 EGUW 131450Z 22010KT 9999 FEW015 BKN250 10/06 Q1031 BLU NOSIG SW (220°) 11.5mph 10°C 6°C
13/02/19 13:50 EGUW 131350Z 22011KT 9999 FEW015 SCT250 11/07 Q1032 BLU NOSIG SW (220°) 12.7mph 11°C 7°C
13/02/19 12:50 EGUW 131250Z 21010KT 9999 FEW013 BKN250 10/06 Q1032 BLU NOSIG SSW (210°) 11.5mph 10°C 6°C
13/02/19 11:50 EGUW 131150Z 20009KT 9999 FEW013 BKN200 09/05 Q1032 BLU NOSIG SSW (200°) 10.4mph 9°C 5°C
13/02/19 10:50 EGUW 131050Z 21009KT 9999 FEW010 BKN250 08/06 Q1033 BLU NOSIG SSW (210°) 10.4mph 8°C 6°C
13/02/19 09:50 EGUW 130950Z 22008KT 9999 FEW026 BKN220 07/06 Q1033 BLU NOSIG SW (220°) 9.2mph 7°C 6°C
13/02/19 08:50 EGUW 130850Z 21009KT 9999 BKN025 OVC250 07/06 Q1033 BLU NOSIG SSW (210°) 10.4mph 7°C 6°C
13/02/19 07:50 EGUW 130750Z 21008KT 9999 BKN025 06/06 Q1032 BLU NOSIG SSW (210°) 9.2mph 6°C 6°C
13/02/19 06:50 EGUW 130650Z 22008KT 9999 OVC024 06/05 Q1032 WHT SW (220°) 9.2mph 6°C 5°C
13/02/19 05:50 EGUW 130550Z AUTO 22008KT 8000 BR BKN026/// OVC160/// 06/05 Q1032 BR SW (220°) 9.2mph 6°C 5°C
13/02/19 04:50 EGUW 130450Z AUTO 22007KT 8000 BR BKN160/// BKN210/// 05/05 Q1032 BR SW (220°) 8.1mph 5°C 5°C
13/02/19 03:50 EGUW 130350Z AUTO 23008KT 7000 BR OVC180/// 06/05 Q1032 BR SW (230°) 9.2mph 6°C 5°C
13/02/19 02:50 EGUW 130250Z AUTO 22008KT 9000 BR FEW019/// OVC210/// 06/05 Q1032 BR SW (220°) 9.2mph 6°C 5°C
13/02/19 01:50 EGUW 130150Z AUTO 23008KT 9999 BKN018/// BKN210/// 06/05 Q1032 SW (230°) 9.2mph 6°C 5°C
13/02/19 00:50 EGUW 130050Z AUTO 23008KT 9999 OVC016/// 07/06 Q1032 SW (230°) 9.2mph 7°C 6°C
12/02/19 23:50 EGUW 122350Z AUTO 23007KT 9999 BKN015/// 07/05 Q1033 SW (230°) 8.1mph 7°C 5°C
12/02/19 22:50 EGUW 122250Z 24007KT 9999 OVC018 07/05 Q1033 WHT NOSIG WSW (240°) 8.1mph 7°C 5°C
12/02/19 21:50 EGUW 122150Z 24006KT 9999 OVC020 08/05 Q1033 WHT NOSIG WSW (240°) 6.9mph 8°C 5°C
12/02/19 20:50 EGUW 122050Z 26012KT 9999 BKN024 08/05 Q1032 WHT TEMPO FEW024 BLU W (260°) 13.8mph 8°C 5°C
12/02/19 19:50 EGUW 121950Z 24008KT CAVOK 07/04 Q1032 BLU NOSIG WSW (240°) 9.2mph 7°C 4°C
12/02/19 18:50 EGUW 121850Z 24009KT 9999 SCT041 07/05 Q1032 BLU NOSIG WSW (240°) 10.4mph 7°C 5°C
12/02/19 17:50 EGUW 121750Z 22009KT 9999 BKN042 BKN250 08/05 Q1032 BLU NOSIG SW (220°) 10.4mph 8°C 5°C
12/02/19 16:50 EGUW 121650Z 24006KT 9999 BKN028 BKN250 09/05 Q1031 BLU TEMPO SCT022 WHT WSW (240°) 6.9mph 9°C 5°C
12/02/19 15:50 EGUW 121550Z 25009KT 9999 FEW020 BKN030 BKN250 09/06 Q1032 BLU TEMPO FEW030 BLU WSW (250°) 10.4mph 9°C 6°C
12/02/19 14:50 EGUW 121450Z 25010KT 9999 FEW019 SCT023 BKN250 09/05 Q1031 WHT TEMPO FEW023 WHT WSW (250°) 11.5mph 9°C 5°C
12/02/19 13:50 EGUW 121350Z 25012KT 9999 FEW016 BKN250 09/05 Q1031 BLU NOSIG WSW (250°) 13.8mph 9°C 5°C
12/02/19 12:50 EGUW 121250Z 25012KT 9999 FEW016 BKN200 09/05 Q1031 BLU NOSIG WSW (250°) 13.8mph 9°C 5°C
12/02/19 11:50 EGUW 121150Z 25011KT CAVOK 08/05 Q1032 BLU NOSIG WSW (250°) 12.7mph 8°C 5°C